createdAt,value
2019-01-26T00:01:34.279Z,83.09
2019-01-26T00:04:03.197Z,83.74
2019-01-26T00:06:32.188Z,84.38
2019-01-26T00:09:01.488Z,84.69
2019-01-26T00:11:30.377Z,84.96
2019-01-26T00:13:59.374Z,85.42
2019-01-26T00:16:28.363Z,85.95
2019-01-26T00:18:56.991Z,86.41
2019-01-26T00:21:25.681Z,86.74
2019-01-26T00:23:54.633Z,87.09
2019-01-26T00:26:23.624Z,87.30
2019-01-26T00:28:52.266Z,87.50
2019-01-26T00:31:20.992Z,87.56
2019-01-26T00:33:49.990Z,87.71
2019-01-26T00:36:18.981Z,87.67
2019-01-26T00:38:47.872Z,87.98
2019-01-26T00:41:16.870Z,88.13
2019-01-26T00:43:45.876Z,88.54
2019-01-26T00:46:14.857Z,89.00
2019-01-26T00:48:43.531Z,89.33
2019-01-26T00:51:17.095Z,89.55
2019-01-26T00:53:42.981Z,89.69
2019-01-26T00:56:12.056Z,89.72
2019-01-26T00:58:41.058Z,89.81
2019-01-26T01:01:10.154Z,89.96
2019-01-26T01:03:39.226Z,90.11
2019-01-26T01:06:07.973Z,90.15
2019-01-26T01:08:37.030Z,90.17
2019-01-26T01:11:05.752Z,90.22
2019-01-26T01:13:34.709Z,90.15
2019-01-26T01:16:03.907Z,90.36
2019-01-26T01:18:32.710Z,90.33
2019-01-26T01:21:01.897Z,90.29
2019-01-26T01:23:30.702Z,90.32
2019-01-26T01:25:59.678Z,90.24
2019-01-26T01:28:28.671Z,90.26
2019-01-26T01:30:58.075Z,90.25
2019-01-26T01:33:36.828Z,90.31
2019-01-26T01:36:05.556Z,90.34
2019-01-26T01:38:34.578Z,90.12
2019-01-26T01:41:03.205Z,90.08
2019-01-26T01:43:32.153Z,89.95
2019-01-26T01:46:00.782Z,90.08
2019-01-26T01:48:30.038Z,90.14
2019-01-26T01:50:59.031Z,90.25
2019-01-26T01:53:28.040Z,90.52
2019-01-26T01:55:57.021Z,90.39
2019-01-26T01:58:25.684Z,90.33
2019-01-26T02:00:54.700Z,90.41
2019-01-26T02:03:23.731Z,90.48
2019-01-26T02:05:52.469Z,90.34
2019-01-26T02:08:21.375Z,90.46
2019-01-26T02:10:50.097Z,90.64
2019-01-26T02:13:18.747Z,90.61
2019-01-26T02:15:47.639Z,90.68
2019-01-26T02:18:16.278Z,90.62
2019-01-26T02:20:44.986Z,90.78
2019-01-26T02:23:13.902Z,90.84
2019-01-26T02:25:42.850Z,91.00
2019-01-26T02:28:11.471Z,91.05
2019-01-26T02:30:40.470Z,91.02
2019-01-26T02:33:09.113Z,90.96
2019-01-26T02:35:37.823Z,91.03
2019-01-26T02:38:06.761Z,91.12
2019-01-26T02:40:35.909Z,91.11
2019-01-26T02:43:04.548Z,91.14
2019-01-26T02:45:33.297Z,91.17
2019-01-26T02:48:02.202Z,91.12
2019-01-26T02:50:30.904Z,91.14
2019-01-26T02:52:59.647Z,91.17
2019-01-26T02:55:28.571Z,91.29
2019-01-26T02:57:57.564Z,91.33
2019-01-26T03:00:26.291Z,91.39
2019-01-26T03:02:55.549Z,91.40
2019-01-26T03:05:24.212Z,91.46
2019-01-26T03:07:52.895Z,91.30
2019-01-26T03:10:23.041Z,91.28
2019-01-26T03:12:52.041Z,91.18
2019-01-26T03:15:22.027Z,91.17
2019-01-26T03:17:51.251Z,91.08
2019-01-26T03:20:19.946Z,91.01
2019-01-26T03:22:49.245Z,91.02
2019-01-26T03:25:18.260Z,90.79
2019-01-26T03:27:47.123Z,90.78
2019-01-26T03:30:18.252Z,90.92
2019-01-26T03:32:46.919Z,91.25
2019-01-26T03:35:15.702Z,91.39
2019-01-26T03:37:44.417Z,91.44
2019-01-26T03:40:14.362Z,91.22
2019-01-26T03:42:43.133Z,91.19
2019-01-26T03:45:13.054Z,91.37
2019-01-26T03:47:41.952Z,91.50
2019-01-26T03:50:11.536Z,91.49
2019-01-26T03:52:40.524Z,91.47
2019-01-26T03:55:10.884Z,91.57
2019-01-26T03:57:39.966Z,91.61
2019-01-26T04:00:18.260Z,91.82
2019-01-26T04:02:47.284Z,91.87
2019-01-26T04:05:16.575Z,91.92
2019-01-26T04:07:45.671Z,92.01
2019-01-26T04:10:14.501Z,92.09
2019-01-26T04:12:43.285Z,92.04
2019-01-26T04:15:13.057Z,92.25
2019-01-26T04:17:42.463Z,92.41
2019-01-26T04:20:13.983Z,92.27
2019-01-26T04:22:42.715Z,92.18
2019-01-26T04:25:11.807Z,92.28
2019-01-26T04:27:40.476Z,92.38
2019-01-26T04:30:12.345Z,92.46
2019-01-26T04:32:41.009Z,92.34
2019-01-26T04:35:09.975Z,92.21
2019-01-26T04:37:39.019Z,92.05
2019-01-26T04:40:10.501Z,92.05
2019-01-26T04:42:39.614Z,92.37
2019-01-26T04:45:11.886Z,92.72
2019-01-26T04:47:40.500Z,92.88
2019-01-26T04:50:11.565Z,92.95
2019-01-26T04:52:40.459Z,93.09
2019-01-26T04:55:11.398Z,93.15
2019-01-26T04:57:40.508Z,93.21
2019-01-26T05:00:13.861Z,93.32
2019-01-26T05:02:42.495Z,93.38
2019-01-26T05:05:11.408Z,93.45
2019-01-26T05:07:40.028Z,93.44
2019-01-26T05:10:10.707Z,93.46
2019-01-26T05:12:39.344Z,93.51
2019-01-26T05:15:09.081Z,93.62
2019-01-26T05:17:39.503Z,93.70
2019-01-26T05:20:11.354Z,93.72
2019-01-26T05:22:40.017Z,93.71
2019-01-26T05:25:09.053Z,93.80
2019-01-26T05:27:37.732Z,93.79
2019-01-26T05:30:10.007Z,93.87
2019-01-26T05:32:38.854Z,93.87
2019-01-26T05:35:07.651Z,93.88
2019-01-26T05:37:36.882Z,93.87
2019-01-26T05:40:07.924Z,93.91
2019-01-26T05:42:36.890Z,93.80
2019-01-26T05:45:07.125Z,93.78
2019-01-26T05:47:35.805Z,93.85
2019-01-26T05:50:06.562Z,93.90
2019-01-26T05:52:35.454Z,93.90
2019-01-26T05:55:04.730Z,93.81
2019-01-26T05:57:33.654Z,93.61
2019-01-26T06:00:02.370Z,93.68
2019-01-26T06:02:31.949Z,93.72
2019-01-26T06:05:00.595Z,93.75
2019-01-26T06:07:29.516Z,93.73
2019-01-26T06:09:58.266Z,93.71
2019-01-26T06:12:27.293Z,93.59
2019-01-26T06:14:56.608Z,93.58
2019-01-26T06:17:25.350Z,93.63
2019-01-26T06:19:54.007Z,93.65
2019-01-26T06:22:22.978Z,93.65
2019-01-26T06:24:51.867Z,93.51
2019-01-26T06:27:20.759Z,93.38
2019-01-26T06:29:49.959Z,93.34
2019-01-26T06:32:18.601Z,93.32
2019-01-26T06:34:47.531Z,93.33
2019-01-26T06:37:16.176Z,93.31
2019-01-26T06:39:45.517Z,93.41
2019-01-26T06:42:14.180Z,93.43
2019-01-26T06:44:43.403Z,93.42
2019-01-26T06:47:12.029Z,93.44
2019-01-26T06:49:40.988Z,93.44
2019-01-26T06:52:09.727Z,93.46
2019-01-26T06:54:38.348Z,93.49
2019-01-26T06:57:07.122Z,93.48
2019-01-26T06:59:35.852Z,93.48
2019-01-26T07:02:04.821Z,93.50
2019-01-26T07:04:51.328Z,93.49
2019-01-26T07:07:20.932Z,93.19
2019-01-26T07:09:49.603Z,93.13
2019-01-26T07:12:18.343Z,92.89
2019-01-26T07:14:46.994Z,92.86
2019-01-26T07:17:15.641Z,92.79
2019-01-26T07:19:44.295Z,92.91
2019-01-26T07:22:13.254Z,92.83
2019-01-26T07:24:42.732Z,92.80
2019-01-26T07:27:11.653Z,92.78
2019-01-26T07:29:40.797Z,92.74
2019-01-26T07:32:09.469Z,92.60
2019-01-26T07:34:38.431Z,92.56
2019-01-26T07:37:07.428Z,92.34
2019-01-26T07:39:36.423Z,92.00
2019-01-26T07:42:05.261Z,92.14
2019-01-26T07:44:34.236Z,92.32
2019-01-26T07:47:03.191Z,92.52
2019-01-26T07:49:31.821Z,92.58
2019-01-26T07:52:01.179Z,92.46
2019-01-26T07:54:29.818Z,92.25
2019-01-26T07:56:58.757Z,92.50
2019-01-26T07:59:27.749Z,92.57
2019-01-26T08:01:56.392Z,92.50
2019-01-26T08:04:25.428Z,92.57
2019-01-26T08:06:54.433Z,92.73
2019-01-26T08:09:23.143Z,92.87
2019-01-26T08:11:52.112Z,93.01
2019-01-26T08:14:20.771Z,93.10
2019-01-26T08:16:49.509Z,93.22
2019-01-26T08:19:18.785Z,93.29
2019-01-26T08:21:47.407Z,93.30
2019-01-26T08:24:16.160Z,93.27
2019-01-26T08:26:45.359Z,93.32
2019-01-26T08:29:13.989Z,93.40
2019-01-26T08:31:42.893Z,93.57
2019-01-26T08:34:11.563Z,93.72
2019-01-26T08:37:26.173Z,93.73
2019-01-26T08:41:04.206Z,93.73
2019-01-26T08:47:22.913Z,93.70
2019-01-26T08:49:51.970Z,93.75
2019-01-26T08:52:20.635Z,93.81
2019-01-26T08:54:49.314Z,93.92
2019-01-26T08:57:17.950Z,94.00
2019-01-26T08:59:46.914Z,94.10
2019-01-26T09:02:45.302Z,94.17
2019-01-26T09:05:16.030Z,94.14
2019-01-26T09:07:44.909Z,94.17
2019-01-26T09:10:13.873Z,94.10
2019-01-26T09:12:43.117Z,94.09
2019-01-26T09:15:12.121Z,94.16
2019-01-26T09:17:40.950Z,94.10
2019-01-26T09:20:11.784Z,94.09
2019-01-26T09:22:40.646Z,94.11
2019-01-26T09:25:09.721Z,94.08
2019-01-26T09:27:39.153Z,94.06
2019-01-26T09:30:08.538Z,94.00
2019-01-26T09:32:37.264Z,93.98
2019-01-26T09:35:06.119Z,93.93
2019-01-26T09:37:34.760Z,93.99
2019-01-26T09:40:04.408Z,93.91
2019-01-26T09:42:33.109Z,93.91
2019-01-26T09:45:01.773Z,93.81
2019-01-26T09:47:30.422Z,93.59
2019-01-26T09:53:27.497Z,93.46
2019-01-26T09:55:56.797Z,93.40
2019-01-26T09:58:25.744Z,93.51
2019-01-26T10:00:54.488Z,93.47
2019-01-26T10:03:23.408Z,93.46
2019-01-26T10:05:52.052Z,93.40
2019-01-26T10:08:20.987Z,93.54
2019-01-26T10:10:49.876Z,93.69
2019-01-26T10:13:18.498Z,93.63
2019-01-26T10:15:50.936Z,93.47
2019-01-26T10:18:19.815Z,93.47
2019-01-26T10:20:59.729Z,93.52
2019-01-26T10:23:28.630Z,93.66
2019-01-26T10:26:00.174Z,93.54
2019-01-26T10:28:29.339Z,93.51
2019-01-26T10:31:02.394Z,93.38
2019-01-26T10:33:37.590Z,93.34
2019-01-26T10:36:25.567Z,93.36
2019-01-26T10:42:57.453Z,93.23
2019-01-26T10:45:27.355Z,93.09
2019-01-26T10:47:56.384Z,92.85
2019-01-26T10:50:25.375Z,92.65
2019-01-26T10:52:54.152Z,91.95
2019-01-26T10:55:23.162Z,92.07
2019-01-26T10:57:52.023Z,92.27
2019-01-26T11:00:22.184Z,92.44
2019-01-26T11:02:51.160Z,92.59
2019-01-26T11:05:20.260Z,92.55
2019-01-26T11:07:49.356Z,92.27
2019-01-26T11:10:18.346Z,92.31
2019-01-26T11:12:47.076Z,92.62
2019-01-26T11:15:16.040Z,92.55
2019-01-26T11:18:26.829Z,92.37
2019-01-26T11:20:55.757Z,92.33
2019-01-26T11:23:24.641Z,92.71
2019-01-26T11:25:53.301Z,92.58
2019-01-26T11:28:21.983Z,92.43
2019-01-26T11:30:50.645Z,91.98
2019-01-26T11:33:19.651Z,92.06
2019-01-26T11:35:48.353Z,92.58
2019-01-26T11:38:17.339Z,92.80
2019-01-26T11:40:46.027Z,92.77
2019-01-26T11:43:14.769Z,92.98
2019-01-26T11:46:03.779Z,93.19
2019-01-26T11:48:35.454Z,93.27
2019-01-26T11:51:14.922Z,93.17
2019-01-26T11:53:43.912Z,93.25
2019-01-26T11:56:37.745Z,93.22
2019-01-26T11:59:06.661Z,93.25
2019-01-26T12:01:42.693Z,92.87
2019-01-26T12:04:19.607Z,92.81
2019-01-26T12:06:56.509Z,92.70
2019-01-26T12:09:25.332Z,92.67
2019-01-26T12:11:54.249Z,92.44
2019-01-26T12:14:23.598Z,92.56
2019-01-26T12:16:52.553Z,92.47
2019-01-26T12:19:22.496Z,92.39
2019-01-26T12:21:51.540Z,92.55
2019-01-26T12:24:26.760Z,92.50
2019-01-26T12:28:18.903Z,93.06
2019-01-26T12:30:52.676Z,92.87
2019-01-26T12:33:21.717Z,92.63
2019-01-26T12:35:50.711Z,92.76
2019-01-26T12:38:20.413Z,92.75
2019-01-26T12:40:49.634Z,92.50
2019-01-26T12:43:18.359Z,92.53
2019-01-26T12:45:47.305Z,92.57
2019-01-26T12:48:15.955Z,92.67
2019-01-26T12:50:44.708Z,92.74
2019-01-26T12:53:13.687Z,92.75
2019-01-26T12:55:42.851Z,92.68
2019-01-26T12:58:11.612Z,92.52
2019-01-26T13:00:40.368Z,92.62
2019-01-26T13:03:09.428Z,92.93
2019-01-26T13:05:38.495Z,93.01
2019-01-26T13:08:07.615Z,92.97
2019-01-26T13:10:39.730Z,92.72
2019-01-26T13:13:08.471Z,92.63
2019-01-26T13:15:37.564Z,92.34
2019-01-26T13:18:06.388Z,92.22
2019-01-26T13:20:35.095Z,92.04
2019-01-26T13:23:04.535Z,92.12
2019-01-26T13:25:33.830Z,92.25
2019-01-26T13:28:02.626Z,92.29
2019-01-26T13:30:31.679Z,92.43
2019-01-26T13:33:00.324Z,92.18
2019-01-26T13:35:29.051Z,92.23
2019-01-26T13:37:58.080Z,92.47
2019-01-26T13:40:26.876Z,92.39
2019-01-26T13:42:55.875Z,92.36
2019-01-26T13:45:24.902Z,92.29
2019-01-26T13:47:53.653Z,92.27
2019-01-26T13:50:22.321Z,92.32
2019-01-26T13:52:51.570Z,92.34
2019-01-26T13:55:20.813Z,92.58
2019-01-26T13:57:49.744Z,92.59
2019-01-26T14:00:22.987Z,92.49
2019-01-26T14:02:51.994Z,92.47
2019-01-26T14:05:21.120Z,92.50
2019-01-26T14:07:49.777Z,92.51
2019-01-26T14:10:20.405Z,92.38
2019-01-26T14:12:49.294Z,92.31
2019-01-26T14:15:18.547Z,92.04
2019-01-26T14:17:47.660Z,92.04
2019-01-26T14:20:24.476Z,91.99
2019-01-26T14:22:53.469Z,91.81
2019-01-26T14:25:22.417Z,91.84
2019-01-26T14:27:53.263Z,92.16
2019-01-26T14:30:31.262Z,91.97
2019-01-26T14:33:00.189Z,91.85
2019-01-26T14:35:29.242Z,91.73
2019-01-26T14:37:58.115Z,91.86
2019-01-26T14:40:26.798Z,91.95
2019-01-26T14:42:58.857Z,91.99
2019-01-26T14:45:29.175Z,91.82
2019-01-26T14:47:58.508Z,92.04
2019-01-26T14:50:27.263Z,91.80
2019-01-26T14:52:56.030Z,91.84
2019-01-26T14:55:27.554Z,91.82
2019-01-26T14:57:56.467Z,92.05
2019-01-26T15:00:30.715Z,91.96
2019-01-26T15:02:59.738Z,91.94
2019-01-26T15:05:29.092Z,92.01
2019-01-26T15:07:58.267Z,91.83
2019-01-26T15:10:27.363Z,91.77
2019-01-26T15:12:56.326Z,92.11
2019-01-26T15:15:25.384Z,92.24
2019-01-26T15:17:54.327Z,92.16
2019-01-26T15:20:27.256Z,92.03
2019-01-26T15:22:56.655Z,92.18
2019-01-26T15:25:26.054Z,92.44
2019-01-26T15:27:54.682Z,92.36
2019-01-26T15:30:27.641Z,92.34
2019-01-26T15:32:56.502Z,92.31
2019-01-26T15:35:25.272Z,92.52
2019-01-26T15:37:54.058Z,92.56
2019-01-26T15:40:23.009Z,92.45
2019-01-26T15:42:53.433Z,92.47
2019-01-26T15:45:51.818Z,92.50
2019-01-26T15:48:27.653Z,92.45
2019-01-26T15:50:56.866Z,92.48
2019-01-26T15:53:25.516Z,92.64
2019-01-26T15:55:54.599Z,92.86
2019-01-26T15:58:23.302Z,93.06
2019-01-26T16:00:55.324Z,92.82
2019-01-26T16:03:23.945Z,92.68
2019-01-26T16:05:52.836Z,92.74
2019-01-26T16:08:21.449Z,92.91
2019-01-26T16:10:50.164Z,92.80
2019-01-26T16:13:19.159Z,92.83
2019-01-26T16:15:48.163Z,92.82
2019-01-26T16:18:17.066Z,92.93
2019-01-26T16:20:45.707Z,92.91
2019-01-26T16:23:14.647Z,92.88
2019-01-26T16:25:43.701Z,93.03
2019-01-26T16:28:12.381Z,92.96
2019-01-26T16:43:29.038Z,93.08
2019-01-26T16:45:57.997Z,92.83
2019-01-26T16:48:26.903Z,92.96
2019-01-26T16:50:56.031Z,92.77
2019-01-26T16:53:26.048Z,92.66
2019-01-26T16:55:54.739Z,92.90
2019-01-26T16:58:23.426Z,92.96
2019-01-26T17:00:55.814Z,92.94
2019-01-26T17:03:25.373Z,93.20
2019-01-26T17:05:54.278Z,93.37
2019-01-26T17:08:23.156Z,93.52
2019-01-26T17:11:03.056Z,93.42
2019-01-26T17:13:36.232Z,93.44
2019-01-26T17:16:05.180Z,93.60
2019-01-26T17:18:34.074Z,94.09
2019-01-26T17:21:02.962Z,94.27
2019-01-26T17:23:31.597Z,94.26
2019-01-26T17:26:00.625Z,94.56
2019-01-26T17:28:29.754Z,94.23
2019-01-26T17:30:58.394Z,94.27
2019-01-26T17:33:27.578Z,94.27
2019-01-26T17:35:56.467Z,94.26
2019-01-26T17:38:25.248Z,94.29
2019-01-26T17:40:54.684Z,94.43
2019-01-26T17:43:24.061Z,94.59
2019-01-26T17:45:52.969Z,94.63
2019-01-26T17:48:21.726Z,94.67
2019-01-26T17:50:50.595Z,94.70
2019-01-26T17:53:19.462Z,94.87
2019-01-26T17:55:48.365Z,94.89
2019-01-26T17:58:17.021Z,94.87
2019-01-26T18:00:52.189Z,94.85
2019-01-26T18:03:21.683Z,94.93
2019-01-26T18:05:50.717Z,94.97
2019-01-26T18:08:19.660Z,95.12
2019-01-26T18:10:48.695Z,95.15
2019-01-26T18:13:17.779Z,95.15
2019-01-26T18:15:46.937Z,95.12
2019-01-26T18:18:16.065Z,95.19
2019-01-26T18:20:49.293Z,95.30
2019-01-26T18:23:17.739Z,95.41
2019-01-26T18:25:46.795Z,95.40
2019-01-26T18:28:15.614Z,95.31
2019-01-26T18:30:44.341Z,95.35
2019-01-26T18:33:13.068Z,95.38
2019-01-26T18:35:42.037Z,95.34
2019-01-26T18:38:10.953Z,95.40
2019-01-26T18:40:39.902Z,95.40
2019-01-26T18:43:08.781Z,95.43
2019-01-26T18:45:37.760Z,95.45
2019-01-26T18:48:07.430Z,95.52
2019-01-26T18:50:38.082Z,95.59
2019-01-26T18:53:07.049Z,95.66
2019-01-26T18:55:35.789Z,95.71
2019-01-26T18:58:04.734Z,95.76
2019-01-26T19:00:36.487Z,95.79
2019-01-26T19:03:21.897Z,95.80
2019-01-26T19:05:51.614Z,95.83
2019-01-26T19:08:20.506Z,95.85
2019-01-26T19:10:49.404Z,95.88
2019-01-26T19:13:18.114Z,95.85
2019-01-26T19:15:46.754Z,95.86
2019-01-26T19:18:15.416Z,95.90
2019-01-26T19:20:44.507Z,95.92
2019-01-26T19:23:13.281Z,95.90
2019-01-26T19:25:42.199Z,95.87
2019-01-26T19:28:13.980Z,95.92
2019-01-26T19:30:42.708Z,95.93
2019-01-26T19:33:11.401Z,95.94
2019-01-26T19:35:40.658Z,95.94
2019-01-26T19:38:09.641Z,95.95
2019-01-26T19:40:38.362Z,95.96
2019-01-26T19:43:08.725Z,95.90
2019-01-26T19:45:37.668Z,95.89
2019-01-26T19:48:06.661Z,96.12
2019-01-26T19:50:35.318Z,96.12
2019-01-26T19:53:04.461Z,95.92
2019-01-26T19:55:33.433Z,95.80
2019-01-26T19:58:02.417Z,95.68
2019-01-26T20:00:31.295Z,95.72
2019-01-26T20:03:00.011Z,95.74
2019-01-26T20:05:29.078Z,95.76
2019-01-26T20:07:58.186Z,95.80
2019-01-26T20:10:27.207Z,95.82
2019-01-26T20:12:55.837Z,95.87
2019-01-26T20:15:24.736Z,95.91
2019-01-26T20:17:53.738Z,95.94
2019-01-26T20:20:25.501Z,95.95
2019-01-26T20:22:54.491Z,95.96
2019-01-26T20:25:23.454Z,96.00
2019-01-26T20:27:52.349Z,95.99
2019-01-26T20:30:26.973Z,96.01
2019-01-26T20:32:56.108Z,95.98
2019-01-26T20:35:24.818Z,95.99
2019-01-26T20:37:53.566Z,96.03
2019-01-26T20:40:23.306Z,96.03
2019-01-26T20:42:52.254Z,96.03
2019-01-26T20:45:23.621Z,96.05
2019-01-26T20:47:52.510Z,96.03
2019-01-26T20:50:21.293Z,96.04
2019-01-26T20:52:50.330Z,96.03
2019-01-26T20:55:21.355Z,96.04
2019-01-26T20:57:50.381Z,96.05
2019-01-26T21:00:21.598Z,96.04
2019-01-26T21:02:50.561Z,96.01
2019-01-26T21:05:19.196Z,96.01
2019-01-26T21:07:47.936Z,96.00
2019-01-26T21:10:19.350Z,96.09
2019-01-26T21:12:50.050Z,96.06
2019-01-26T21:15:21.115Z,95.97
2019-01-26T21:17:50.056Z,95.87
2019-01-26T21:20:19.728Z,95.83
2019-01-26T21:22:49.042Z,95.88
2019-01-26T21:25:17.997Z,95.93
2019-01-26T21:27:47.095Z,95.97
2019-01-26T21:30:18.986Z,96.02
2019-01-26T21:32:47.994Z,96.07
2019-01-26T21:35:16.697Z,96.11
2019-01-26T21:37:45.834Z,96.13
2019-01-26T21:40:25.790Z,96.16
2019-01-26T21:42:58.675Z,96.18
2019-01-26T21:45:27.695Z,96.18
2019-01-26T21:47:56.458Z,96.21
2019-01-26T21:50:30.068Z,96.21
2019-01-26T21:52:59.397Z,96.20
2019-01-26T21:55:29.700Z,96.20
2019-01-26T21:57:58.861Z,96.21
2019-01-26T22:00:31.647Z,96.21
2019-01-26T22:03:06.318Z,96.21
2019-01-26T22:05:38.080Z,96.23
2019-01-26T22:08:08.260Z,96.23
2019-01-26T22:10:40.024Z,96.23
2019-01-26T22:13:10.381Z,96.23
2019-01-26T22:15:40.486Z,96.17
2019-01-26T22:18:10.437Z,96.15
2019-01-26T22:20:40.237Z,96.16
2019-01-26T22:23:09.596Z,96.16
2019-01-26T22:25:39.150Z,96.19
2019-01-26T22:28:08.398Z,96.22
2019-01-26T22:30:37.432Z,96.24
2019-01-26T22:33:06.765Z,96.29
2019-01-26T22:35:35.938Z,96.31
2019-01-26T22:38:05.547Z,96.35
2019-01-26T22:40:36.270Z,96.37
2019-01-26T22:43:05.571Z,96.37
2019-01-26T22:45:34.463Z,96.40
2019-01-26T22:48:03.223Z,96.40
2019-01-26T22:50:32.569Z,96.42
2019-01-26T22:53:01.412Z,96.44
2019-01-26T22:55:31.320Z,96.46
2019-01-26T22:58:00.312Z,96.49
2019-01-26T23:00:50.414Z,96.50
2019-01-26T23:03:21.065Z,96.50
2019-01-26T23:06:16.045Z,96.51
2019-01-26T23:08:45.786Z,96.50
2019-01-26T23:12:01.963Z,96.52
2019-01-26T23:14:49.079Z,96.52
2019-01-26T23:17:45.079Z,96.53
2019-01-26T23:20:24.219Z,96.52
2019-01-26T23:23:46.587Z,96.53
2019-01-26T23:26:46.388Z,96.53
2019-01-26T23:29:55.482Z,96.53
2019-01-26T23:32:24.388Z,96.56
2019-01-26T23:34:53.496Z,96.58
2019-01-26T23:37:22.730Z,96.57
2019-01-26T23:39:51.583Z,96.59
2019-01-26T23:42:20.387Z,96.61
2019-01-26T23:44:49.504Z,96.60
2019-01-26T23:47:18.132Z,96.61
2019-01-26T23:49:46.763Z,96.62
2019-01-26T23:52:15.747Z,96.64
2019-01-26T23:54:44.409Z,96.66
2019-01-26T23:57:23.746Z,96.66
2019-01-26T23:59:53.127Z,96.67
